Mid Ohio Valley Regional Airport Parkersburg US
ICAO: KPKB
IATA: PKB
Category: Medium
Scheduled Services: Yes

Elevation: 858 ft
TransAlt. 18000 ft.

Airport Communications:
ATIS:124.35
INDIANAPOLIS CNTR:125.55
CTAF:123.7
GND:121.7
PARKERSBURG TWR:123.7
UNICOM:122.95

KPKB Zoom In..

If you have problems with the map follow the link
https://www.worldairports.se/pages/airport.php?
ICAO=KPKB

Runways:

(A) RW 03 length 7240 ft width 150 ft
ILS 110.70 / hdg 29

(B) RW 10 length 4002 ft width 150 ft
---- / hdg 102

(C) RW 21 length 7240 ft width 150 ft
---- / hdg 209

(D) RW 28 length 4002 ft width 150 ft
---- / hdg 282

Location; KPKB
Day. 21 / Time. 18.53 Zulu
* Altimeter: 30.31
* Temperature: 08° c. 46.4°f.
* Wind from: VRB° Speed 04 kn.
Dewpoint: -03° c.
Visibility: 10 Statute Miles.
Clouds: Broken 3800 ft.

KPKB 211853Z VRB04KT 10SM BKN038 08/M03 A3031 RMK AO2 SLP268 T00781028


Wind From VRB°
Speed 04 kn.

 
 
jpsmedia.com for Web Design worldairports.se 2018   terms of use